createdAt,value
2023-04-10T00:01:52.672Z,101488.09
2023-04-10T00:04:22.334Z,101482.38
2023-04-10T00:06:51.806Z,101474.81
2023-04-10T00:09:20.261Z,101475.03
2023-04-10T00:11:49.755Z,101480.44
2023-04-10T00:14:23.199Z,101482.53
2023-04-10T00:16:53.451Z,101481.63
2023-04-10T00:19:22.016Z,101482.53
2023-04-10T00:21:50.432Z,101474.22
2023-04-10T00:24:18.895Z,101481.59
2023-04-10T00:26:47.296Z,101481.25
2023-04-10T00:29:15.679Z,101483.16
2023-04-10T00:31:44.160Z,101476.88
2023-04-10T00:34:14.226Z,101483.50
2023-04-10T00:36:42.722Z,101479.81
2023-04-10T00:39:12.974Z,101475.34
2023-04-10T00:41:41.885Z,101474.22
2023-04-10T00:44:10.579Z,101481.16
2023-04-10T00:46:41.702Z,101474.44
2023-04-10T00:49:10.913Z,101482.72
2023-04-10T00:51:42.135Z,101478.56
2023-04-10T00:54:11.344Z,101478.03
2023-04-10T00:56:39.760Z,101477.31
2023-04-10T00:59:08.150Z,101479.53
2023-04-10T01:01:37.224Z,101478.88
2023-04-10T01:04:06.733Z,101475.69
2023-04-10T01:06:51.855Z,101475.13
2023-04-10T01:09:34.194Z,101470.66
2023-04-10T01:12:12.548Z,101472.47
2023-04-10T01:14:50.848Z,101474.59
2023-04-10T01:17:29.277Z,101474.94
2023-04-10T01:20:08.422Z,101465.81
2023-04-10T01:22:50.940Z,101456.53
2023-04-10T01:25:45.039Z,101446.75
2023-04-10T01:28:52.402Z,101449.47
2023-04-10T01:31:26.851Z,101448.38
2023-04-10T01:34:06.355Z,101458.56
2023-04-10T01:36:39.310Z,101411.91
2023-04-10T01:39:09.717Z,101449.66
2023-04-10T01:41:41.229Z,101459.00
2023-04-10T01:44:16.003Z,101453.44
2023-04-10T01:46:46.221Z,101451.38
2023-04-10T01:49:16.661Z,101441.47
2023-04-10T01:51:46.623Z,101445.06
2023-04-10T01:54:16.058Z,101452.38
2023-04-10T01:56:45.643Z,101446.50
2023-04-10T01:59:18.150Z,101445.66
2023-04-10T02:01:46.723Z,101445.84
2023-04-10T02:04:15.252Z,101442.63
2023-04-10T02:06:52.755Z,101449.66
2023-04-10T02:09:27.472Z,101441.69
2023-04-10T02:12:00.312Z,101420.03
2023-04-10T02:14:33.433Z,101448.13
2023-04-10T02:17:03.964Z,101440.69
2023-04-10T02:19:34.306Z,101447.22
2023-04-10T02:22:03.144Z,101440.59
2023-04-10T02:24:33.822Z,101438.03
2023-04-10T02:27:02.820Z,101449.69
2023-04-10T02:29:32.686Z,101441.19
2023-04-10T02:32:05.303Z,101442.44
2023-04-10T02:34:33.859Z,101438.66
2023-04-10T02:37:02.211Z,101435.13
2023-04-10T02:39:31.283Z,101431.91
2023-04-10T02:41:59.693Z,101434.09
2023-04-10T02:44:28.365Z,101436.34
2023-04-10T02:46:58.462Z,101437.41
2023-04-10T02:49:27.359Z,101443.09
2023-04-10T02:51:55.749Z,101439.50
2023-04-10T02:54:24.327Z,101442.16
2023-04-10T02:56:52.753Z,101446.78
2023-04-10T02:59:21.996Z,101442.63
2023-04-10T03:01:50.713Z,101447.25
2023-04-10T03:04:20.969Z,101443.66
2023-04-10T03:06:49.507Z,101451.69
2023-04-10T03:09:17.870Z,101449.13
2023-04-10T03:11:47.305Z,101452.38
2023-04-10T03:14:16.985Z,101449.16
2023-04-10T03:16:45.531Z,101451.41
2023-04-10T03:19:13.864Z,101451.31
2023-04-10T03:21:43.581Z,101451.50
2023-04-10T03:24:11.993Z,101449.44
2023-04-10T03:26:40.485Z,101444.78
2023-04-10T03:29:08.915Z,101442.69
2023-04-10T03:31:37.591Z,101443.25
2023-04-10T03:34:06.178Z,101446.09
2023-04-10T03:36:34.860Z,101448.03
2023-04-10T03:39:04.637Z,101442.91
2023-04-10T03:41:33.076Z,101448.56
2023-04-10T03:44:03.377Z,101451.22
2023-04-10T03:46:31.794Z,101448.47
2023-04-10T03:49:01.678Z,101449.59
2023-04-10T03:51:32.054Z,101456.53
2023-04-10T03:54:00.832Z,101455.50
2023-04-10T03:56:31.133Z,101449.50
2023-04-10T03:59:02.549Z,101450.84
2023-04-10T04:01:34.123Z,101454.78
2023-04-10T04:04:10.923Z,101455.06
2023-04-10T04:06:57.132Z,101461.66
2023-04-10T04:09:48.108Z,101461.72
2023-04-10T04:12:36.416Z,101462.66
2023-04-10T04:15:25.127Z,101470.34
2023-04-10T04:18:06.535Z,101466.94
2023-04-10T04:20:37.947Z,101464.38
2023-04-10T04:23:32.880Z,101469.13
2023-04-10T04:26:30.483Z,101474.06
2023-04-10T04:29:16.521Z,101471.78
2023-04-10T04:32:05.195Z,101342.72
2023-04-10T04:34:56.041Z,101482.03
2023-04-10T04:37:43.123Z,101483.56
2023-04-10T04:40:30.199Z,101488.75
2023-04-10T04:43:07.885Z,101487.25
2023-04-10T04:45:56.801Z,101486.66
2023-04-10T04:48:51.172Z,101487.50
2023-04-10T04:51:38.347Z,101492.88
2023-04-10T04:54:11.571Z,101498.25
2023-04-10T04:56:58.400Z,101506.13
2023-04-10T04:59:44.960Z,101503.47
2023-04-10T05:02:37.898Z,101511.56
2023-04-10T05:05:35.704Z,101511.91
2023-04-10T05:08:29.170Z,101515.50
2023-04-10T05:11:17.896Z,101512.06
2023-04-10T05:14:07.412Z,101463.75
2023-04-10T05:16:56.141Z,101512.00
2023-04-10T05:19:44.566Z,101512.69
2023-04-10T05:22:20.432Z,101528.56
2023-04-10T05:25:12.734Z,101520.69
2023-04-10T05:28:01.542Z,101528.63
2023-04-10T05:31:08.571Z,101525.91
2023-04-10T05:33:40.104Z,101538.72
2023-04-10T05:36:14.762Z,101529.47
2023-04-10T05:39:01.742Z,101537.94
2023-04-10T05:41:39.574Z,101548.28
2023-04-10T05:44:21.492Z,101542.13
2023-04-10T05:47:03.637Z,101555.47
2023-04-10T05:49:37.977Z,101558.50
2023-04-10T05:52:26.337Z,101558.25
2023-04-10T05:55:22.514Z,101561.91
2023-04-10T05:58:13.473Z,101567.38
2023-04-10T06:01:11.563Z,101569.78
2023-04-10T06:03:51.500Z,101569.34
2023-04-10T06:06:21.979Z,101568.28
2023-04-10T06:08:52.643Z,101577.28
2023-04-10T06:11:21.318Z,101569.81
2023-04-10T06:13:53.575Z,101570.88
2023-04-10T06:16:27.884Z,101577.91
2023-04-10T06:18:56.599Z,101578.91
2023-04-10T06:21:24.967Z,101581.28
2023-04-10T06:23:55.355Z,101583.66
2023-04-10T06:26:23.916Z,101592.25
2023-04-10T06:28:53.185Z,101584.78
2023-04-10T06:31:23.283Z,101578.78
2023-04-10T06:33:52.286Z,101577.22
2023-04-10T06:36:21.086Z,101592.88
2023-04-10T06:38:58.280Z,101586.13
2023-04-10T06:41:26.943Z,101593.41
2023-04-10T06:43:57.033Z,101588.25
2023-04-10T06:46:25.483Z,101586.78
2023-04-10T06:48:54.043Z,101581.25
2023-04-10T06:51:22.626Z,101587.78
2023-04-10T06:53:51.192Z,101581.91
2023-04-10T06:56:21.172Z,101588.38
2023-04-10T06:58:50.544Z,101583.09
2023-04-10T07:01:18.995Z,101578.72
2023-04-10T07:03:47.396Z,101574.03
2023-04-10T07:06:15.911Z,101577.25
2023-04-10T07:08:44.563Z,101578.31
2023-04-10T07:11:12.967Z,101578.31
2023-04-10T07:13:43.186Z,101573.84
2023-04-10T07:16:12.704Z,101580.19
2023-04-10T07:18:41.451Z,101577.72
2023-04-10T07:21:13.126Z,101576.25
2023-04-10T07:23:42.048Z,101576.72
2023-04-10T07:26:10.550Z,101587.09
2023-04-10T07:28:39.527Z,101580.25
2023-04-10T07:31:10.750Z,101579.72
2023-04-10T07:33:40.213Z,101571.72
2023-04-10T07:36:09.701Z,101585.16
2023-04-10T07:38:38.854Z,101591.09
2023-04-10T07:41:07.795Z,101597.03
2023-04-10T07:43:36.517Z,101603.38
2023-04-10T07:46:05.447Z,101605.78
2023-04-10T07:48:35.413Z,101608.78
2023-04-10T07:51:04.016Z,101590.25
2023-04-10T07:53:32.519Z,101612.88
2023-04-10T07:56:00.880Z,101616.00
2023-04-10T07:58:29.257Z,101613.94
2023-04-10T08:00:57.616Z,101621.66
2023-04-10T08:03:26.367Z,101626.94
2023-04-10T08:05:56.662Z,101627.19
2023-04-10T08:08:25.099Z,101624.50
2023-04-10T08:10:53.421Z,101635.50
2023-04-10T08:13:21.980Z,101643.13
2023-04-10T08:15:50.475Z,101640.66
2023-04-10T08:18:18.826Z,101639.28
2023-04-10T08:20:47.244Z,101640.53
2023-04-10T08:23:20.669Z,101648.81
2023-04-10T08:25:49.554Z,101643.81
2023-04-10T08:28:19.454Z,101643.03
2023-04-10T08:30:47.900Z,101638.72
2023-04-10T08:33:17.003Z,101640.88
2023-04-10T08:35:48.761Z,101638.72
2023-04-10T08:38:18.615Z,101643.84
2023-04-10T08:40:46.928Z,101642.66
2023-04-10T08:43:15.665Z,101636.47
2023-04-10T08:45:44.084Z,101636.13
2023-04-10T08:48:13.179Z,101630.59
2023-04-10T08:50:44.405Z,101623.38
2023-04-10T08:53:13.700Z,101634.56
2023-04-10T08:55:45.444Z,101639.34
2023-04-10T08:58:14.891Z,101644.63
2023-04-10T09:00:43.231Z,101644.84
2023-04-10T09:03:14.373Z,101639.53
2023-04-10T09:05:43.185Z,101599.44
2023-04-10T09:08:12.368Z,101640.91
2023-04-10T09:10:40.955Z,101652.22
2023-04-10T09:13:10.880Z,101655.44
2023-04-10T09:15:58.571Z,101646.66
2023-04-10T09:18:43.204Z,101651.91
2023-04-10T09:21:12.844Z,101648.72
2023-04-10T09:23:42.698Z,101636.53
2023-04-10T09:26:25.247Z,101653.13
2023-04-10T09:29:02.762Z,101653.50
2023-04-10T09:31:33.959Z,101653.66
2023-04-10T09:34:13.457Z,101643.72
2023-04-10T09:36:42.587Z,101636.59
2023-04-10T09:39:12.256Z,101640.84
2023-04-10T09:41:58.897Z,101628.84
2023-04-10T09:44:33.007Z,101634.94
2023-04-10T09:47:17.874Z,101630.91
2023-04-10T09:49:48.591Z,101617.38
2023-04-10T09:52:21.056Z,101628.19
2023-04-10T09:54:49.491Z,101641.03
2023-04-10T09:57:20.283Z,101636.31
2023-04-10T09:59:51.833Z,101617.38
2023-04-10T10:02:21.481Z,101623.81
2023-04-10T10:04:51.239Z,101616.16
2023-04-10T10:07:20.875Z,101615.66
2023-04-10T10:09:51.060Z,101630.69
2023-04-10T10:12:25.752Z,101621.22
2023-04-10T10:15:01.498Z,101623.41
2023-04-10T10:17:33.891Z,101626.91
2023-04-10T10:20:05.769Z,101623.66
2023-04-10T10:22:35.064Z,101634.94
2023-04-10T10:25:04.281Z,101636.78
2023-04-10T10:27:33.790Z,101645.50
2023-04-10T10:30:15.940Z,101646.81
2023-04-10T10:32:51.078Z,101638.66
2023-04-10T10:35:19.889Z,101603.50
2023-04-10T10:37:48.799Z,101641.56
2023-04-10T10:40:22.278Z,101606.69
2023-04-10T10:42:59.089Z,101637.16
2023-04-10T10:45:36.205Z,101640.31
2023-04-10T10:48:04.942Z,101633.34
2023-04-10T10:50:56.543Z,101636.06
2023-04-10T10:53:36.178Z,101633.84
2023-04-10T10:56:38.430Z,101623.69
2023-04-10T10:59:06.869Z,101621.91
2023-04-10T11:01:36.739Z,101618.72
2023-04-10T11:04:43.802Z,101614.66
2023-04-10T11:07:12.255Z,101604.63
2023-04-10T11:09:57.415Z,101607.34
2023-04-10T11:12:26.721Z,101596.66
2023-04-10T11:15:00.801Z,101603.59
2023-04-10T11:17:54.620Z,101589.53
2023-04-10T11:20:27.466Z,101580.34
2023-04-10T11:23:12.518Z,101592.03
2023-04-10T11:25:49.352Z,101601.03
2023-04-10T11:28:37.779Z,101598.13
2023-04-10T11:31:24.673Z,101599.44
2023-04-10T11:34:04.059Z,101598.09
2023-04-10T11:36:33.386Z,101591.31
2023-04-10T11:39:04.312Z,101565.91
2023-04-10T11:41:33.767Z,101578.84
2023-04-10T11:44:03.886Z,101581.38
2023-04-10T11:46:32.646Z,101575.53
2023-04-10T11:49:04.381Z,101574.94
2023-04-10T11:51:33.064Z,101565.50
2023-04-10T11:54:09.475Z,101544.09
2023-04-10T11:56:38.692Z,101567.63
2023-04-10T11:59:10.834Z,101561.06
2023-04-10T12:01:42.952Z,101567.34
2023-04-10T12:04:21.052Z,101545.44
2023-04-10T12:06:50.640Z,101569.22
2023-04-10T12:09:21.174Z,101561.81
2023-04-10T12:11:56.190Z,101555.47
2023-04-10T12:14:30.762Z,101554.00
2023-04-10T12:16:59.564Z,101549.53
2023-04-10T12:19:29.844Z,101504.59
2023-04-10T12:21:59.694Z,101558.38
2023-04-10T12:24:45.048Z,101554.19
2023-04-10T12:27:20.881Z,101544.16
2023-04-10T12:29:50.350Z,101550.03
2023-04-10T12:32:19.240Z,101546.53
2023-04-10T12:34:54.025Z,101546.38
2023-04-10T12:37:22.529Z,101551.59
2023-04-10T12:39:52.021Z,101546.25
2023-04-10T12:42:22.626Z,101539.88
2023-04-10T12:44:59.011Z,101529.66
2023-04-10T12:47:28.935Z,101526.97
2023-04-10T12:50:10.341Z,101547.69
2023-04-10T12:52:40.549Z,101552.03
2023-04-10T12:55:14.228Z,101549.63
2023-04-10T12:57:43.435Z,101549.34
2023-04-10T13:00:14.159Z,101560.63
2023-04-10T13:02:43.275Z,101559.09
2023-04-10T13:05:13.537Z,101561.25
2023-04-10T13:07:42.576Z,101558.91
2023-04-10T13:10:11.499Z,101556.75
2023-04-10T13:12:40.799Z,101551.06
2023-04-10T13:15:10.870Z,101554.44
2023-04-10T13:17:41.073Z,101550.19
2023-04-10T13:20:13.629Z,101545.28
2023-04-10T13:22:41.981Z,101556.13
2023-04-10T13:25:11.006Z,101557.81
2023-04-10T13:27:39.333Z,101549.44
2023-04-10T13:30:09.120Z,101558.16
2023-04-10T13:32:37.515Z,101554.25
2023-04-10T13:35:06.593Z,101555.81
2023-04-10T13:37:36.856Z,101507.16
2023-04-10T13:40:05.560Z,101560.31
2023-04-10T13:42:35.895Z,101560.38
2023-04-10T13:45:05.665Z,101569.28
2023-04-10T13:47:34.044Z,101566.25
2023-04-10T13:50:02.522Z,101569.00
2023-04-10T13:52:30.905Z,101567.75
2023-04-10T13:55:01.316Z,101560.59
2023-04-10T13:57:29.760Z,101570.28
2023-04-10T13:59:58.153Z,101557.47
2023-04-10T14:02:26.871Z,101568.19
2023-04-10T14:04:55.347Z,101566.03
2023-04-10T14:07:23.731Z,101553.41
2023-04-10T14:09:52.061Z,101564.34
2023-04-10T14:12:23.283Z,101558.28
2023-04-10T14:14:51.793Z,101552.94
2023-04-10T14:17:20.103Z,101554.97
2023-04-10T14:19:51.608Z,101556.34
2023-04-10T14:22:20.071Z,101565.66
2023-04-10T14:24:49.022Z,101563.53
2023-04-10T14:27:18.393Z,101576.56
2023-04-10T14:29:54.596Z,101572.69
2023-04-10T14:32:23.673Z,101578.59
2023-04-10T14:34:52.099Z,101569.66
2023-04-10T14:37:20.426Z,101565.75
2023-04-10T14:39:48.728Z,101563.41
2023-04-10T14:42:17.108Z,101570.16
2023-04-10T14:44:45.441Z,101561.88
2023-04-10T14:47:15.337Z,101566.66
2023-04-10T14:49:43.755Z,101561.59
2023-04-10T14:52:12.192Z,101565.31
2023-04-10T14:54:40.543Z,101552.97
2023-04-10T14:57:09.909Z,101557.53
2023-04-10T14:59:38.321Z,101560.25
2023-04-10T15:02:06.687Z,101559.91
2023-04-10T15:04:37.077Z,101560.78
2023-04-10T15:07:05.586Z,101563.31
2023-04-10T15:09:33.964Z,101555.88
2023-04-10T15:12:02.467Z,101560.25
2023-04-10T15:14:30.806Z,101570.06
2023-04-10T15:16:59.334Z,101563.47
2023-04-10T15:19:27.735Z,101557.22
2023-04-10T15:21:57.632Z,101553.84
2023-04-10T15:24:26.421Z,101554.19
2023-04-10T15:26:57.828Z,101543.69
2023-04-10T15:29:26.295Z,101550.97
2023-04-10T15:31:54.775Z,101554.88
2023-04-10T15:34:23.215Z,101554.03
2023-04-10T15:36:51.578Z,101554.88
2023-04-10T15:39:21.663Z,101557.75
2023-04-10T15:41:50.704Z,101554.72
2023-04-10T15:44:19.043Z,101550.66
2023-04-10T15:46:47.828Z,101563.66
2023-04-10T15:49:29.884Z,101556.91
2023-04-10T15:52:05.389Z,101559.75
2023-04-10T15:54:36.423Z,101566.34
2023-04-10T15:57:05.267Z,101572.94
2023-04-10T15:59:36.020Z,101561.28
2023-04-10T16:02:04.686Z,101558.59
2023-04-10T16:04:33.317Z,101556.38
2023-04-10T16:07:01.733Z,101559.41
2023-04-10T16:09:30.292Z,101563.97
2023-04-10T16:12:00.153Z,101563.97
2023-04-10T16:14:28.509Z,101561.94
2023-04-10T16:16:56.995Z,101564.97
2023-04-10T16:19:25.428Z,101570.38
2023-04-10T16:21:54.090Z,101567.31
2023-04-10T16:24:22.430Z,101563.22
2023-04-10T16:26:51.162Z,101565.03
2023-04-10T16:29:21.420Z,101569.28
2023-04-10T16:31:49.877Z,101569.59
2023-04-10T16:34:18.425Z,101580.72
2023-04-10T16:36:46.773Z,101580.66
2023-04-10T16:39:15.180Z,101586.06
2023-04-10T16:41:43.672Z,101571.22
2023-04-10T16:44:12.003Z,101571.19
2023-04-10T16:46:45.320Z,101580.94
2023-04-10T16:49:16.836Z,101565.34
2023-04-10T16:51:46.424Z,101573.25
2023-04-10T16:54:14.780Z,101571.72
2023-04-10T16:56:43.220Z,101581.81
2023-04-10T16:59:11.684Z,101583.00
2023-04-10T17:01:40.785Z,101582.44
2023-04-10T17:04:11.121Z,101583.94
2023-04-10T17:06:39.474Z,101580.88
2023-04-10T17:09:07.802Z,101579.31
2023-04-10T17:11:36.274Z,101585.06
2023-04-10T17:14:04.795Z,101581.97
2023-04-10T17:16:33.246Z,101580.25
2023-04-10T17:19:01.748Z,101584.28
2023-04-10T17:21:32.663Z,101585.28
2023-04-10T17:24:01.037Z,101583.19
2023-04-10T17:26:30.885Z,101584.38
2023-04-10T17:28:59.389Z,101590.75
2023-04-10T17:31:27.774Z,101585.22
2023-04-10T17:33:56.253Z,101587.91
2023-04-10T17:36:24.711Z,101581.97
2023-04-10T17:38:54.780Z,101588.22
2023-04-10T17:41:23.279Z,101595.59
2023-04-10T17:43:51.824Z,101596.59
2023-04-10T17:46:20.204Z,101599.50
2023-04-10T17:48:48.628Z,101591.56
2023-04-10T17:51:16.942Z,101599.94
2023-04-10T17:53:46.294Z,101594.72
2023-04-10T17:56:22.349Z,101601.25
2023-04-10T17:58:53.947Z,101586.78
2023-04-10T18:01:23.586Z,101590.09
2023-04-10T18:03:52.168Z,101595.34
2023-04-10T18:06:20.659Z,101596.19
2023-04-10T18:08:49.066Z,101597.19
2023-04-10T18:11:17.822Z,101602.72
2023-04-10T18:13:48.345Z,101602.03
2023-04-10T18:16:17.670Z,101603.19
2023-04-10T18:18:46.218Z,101604.19
2023-04-10T18:21:14.561Z,101599.09
2023-04-10T18:23:44.675Z,101596.41
2023-04-10T18:26:13.557Z,101591.16
2023-04-10T18:28:43.615Z,101587.97
2023-04-10T18:31:16.057Z,101581.03
2023-04-10T18:33:45.604Z,101580.50
2023-04-10T18:36:16.557Z,101586.50
2023-04-10T18:38:45.241Z,101586.25
2023-04-10T18:41:13.598Z,101587.19
2023-04-10T18:43:42.369Z,101582.41
2023-04-10T18:46:15.786Z,101579.63
2023-04-10T18:48:46.255Z,101581.38
2023-04-10T18:51:14.656Z,101568.25
2023-04-10T18:53:43.185Z,101574.91
2023-04-10T18:56:11.647Z,101575.19
2023-04-10T18:58:40.075Z,101584.28
2023-04-10T19:01:10.812Z,101581.19
2023-04-10T19:03:40.955Z,101587.75
2023-04-10T19:06:10.448Z,101588.66
2023-04-10T19:08:38.935Z,101583.47
2023-04-10T19:11:07.884Z,101575.28
2023-04-10T19:13:36.335Z,101583.13
2023-04-10T19:16:05.702Z,101592.59
2023-04-10T19:18:34.221Z,101601.25
2023-04-10T19:21:04.345Z,101613.28
2023-04-10T19:23:32.779Z,101629.44
2023-04-10T19:26:01.257Z,101631.72
2023-04-10T19:28:30.613Z,101631.59
2023-04-10T19:30:59.034Z,101637.06
2023-04-10T19:33:27.455Z,101639.06
2023-04-10T19:35:55.937Z,101636.50
2023-04-10T19:38:25.818Z,101635.63
2023-04-10T19:40:54.847Z,101651.34
2023-04-10T19:43:23.320Z,101650.47
2023-04-10T19:45:53.068Z,101642.25
2023-04-10T19:48:21.542Z,101645.31
2023-04-10T19:50:49.991Z,101659.13
2023-04-10T19:53:18.417Z,101653.72
2023-04-10T19:55:49.308Z,101653.72
2023-04-10T19:58:35.638Z,101652.88
2023-04-10T20:01:06.893Z,101657.25
2023-04-10T20:03:37.864Z,101653.41
2023-04-10T20:06:08.526Z,101659.88
2023-04-10T20:08:37.435Z,101671.00
2023-04-10T20:11:07.603Z,101641.31
2023-04-10T20:13:36.061Z,101671.25
2023-04-10T20:16:04.474Z,101676.00
2023-04-10T20:18:33.147Z,101679.56
2023-04-10T20:21:01.685Z,101682.91
2023-04-10T20:23:30.015Z,101686.50
2023-04-10T20:25:58.504Z,101692.50
2023-04-10T20:28:28.412Z,101692.75
2023-04-10T20:30:56.862Z,101697.75
2023-04-10T20:33:25.257Z,101695.44
2023-04-10T20:35:54.261Z,101701.66
2023-04-10T20:38:22.858Z,101701.22
2023-04-10T20:40:51.382Z,101705.63
2023-04-10T20:43:19.840Z,101701.00
2023-04-10T20:45:49.619Z,101696.03
2023-04-10T20:48:17.996Z,101704.19
2023-04-10T20:50:49.211Z,101647.81
2023-04-10T20:53:17.597Z,101701.13
2023-04-10T20:55:46.409Z,101705.63
2023-04-10T20:58:14.849Z,101698.50
2023-04-10T21:00:43.282Z,101696.44
2023-04-10T21:03:13.500Z,101695.22
2023-04-10T21:05:42.690Z,101699.81
2023-04-10T21:08:14.873Z,101689.56
2023-04-10T21:10:45.140Z,101696.75
2023-04-10T21:13:14.599Z,101703.72
2023-04-10T21:15:43.400Z,101677.47
2023-04-10T21:18:13.268Z,101711.88
2023-04-10T21:20:43.455Z,101702.41
2023-04-10T21:23:11.916Z,101703.25
2023-04-10T21:25:40.484Z,101719.66
2023-04-10T21:28:08.945Z,101702.75
2023-04-10T21:30:37.390Z,101711.16
2023-04-10T21:33:06.192Z,101697.66
2023-04-10T21:35:36.000Z,101701.69
2023-04-10T21:38:04.436Z,101692.09
2023-04-10T21:40:34.634Z,101690.50
2023-04-10T21:43:03.452Z,101696.44
2023-04-10T21:45:32.133Z,101689.03
2023-04-10T21:48:00.950Z,101693.28
2023-04-10T21:50:29.385Z,101702.25
2023-04-10T21:53:00.277Z,101698.97
2023-04-10T21:55:28.706Z,101709.31
2023-04-10T21:57:57.881Z,101713.06
2023-04-10T22:00:26.538Z,101714.03
2023-04-10T22:02:55.075Z,101709.66
2023-04-10T22:05:24.691Z,101717.34
2023-04-10T22:07:54.044Z,101708.69
2023-04-10T22:10:23.912Z,101710.88
2023-04-10T22:12:52.291Z,101712.06
2023-04-10T22:15:20.708Z,101705.75
2023-04-10T22:17:49.129Z,101700.69
2023-04-10T22:20:17.736Z,101702.38
2023-04-10T22:22:46.128Z,101695.09
2023-04-10T22:25:14.529Z,101700.06
2023-04-10T22:27:44.331Z,101692.66
2023-04-10T22:30:13.715Z,101693.63
2023-04-10T22:32:42.237Z,101687.81
2023-04-10T22:35:10.791Z,101684.28
2023-04-10T22:37:39.200Z,101678.22
2023-04-10T22:40:08.963Z,101669.47
2023-04-10T22:42:37.438Z,101666.81
2023-04-10T22:45:08.797Z,101664.75
2023-04-10T22:47:37.363Z,101661.94
2023-04-10T22:50:07.343Z,101662.28
2023-04-10T22:52:36.136Z,101660.13
2023-04-10T22:55:06.977Z,101651.84
2023-04-10T22:57:35.456Z,101648.31
2023-04-10T23:00:04.510Z,101646.63
2023-04-10T23:02:34.465Z,101647.97
2023-04-10T23:05:03.039Z,101643.13
2023-04-10T23:07:32.462Z,101635.81
2023-04-10T23:10:01.568Z,101637.84
2023-04-10T23:12:30.000Z,101640.16
2023-04-10T23:14:58.469Z,101642.72
2023-04-10T23:17:26.919Z,101644.66
2023-04-10T23:19:57.151Z,101638.34
2023-04-10T23:22:25.518Z,101641.38
2023-04-10T23:24:55.100Z,101656.44
2023-04-10T23:27:23.899Z,101655.59
2023-04-10T23:29:52.323Z,101667.03
2023-04-10T23:32:20.802Z,101669.44
2023-04-10T23:34:49.270Z,101660.09
2023-04-10T23:37:19.185Z,101652.44
2023-04-10T23:39:47.646Z,101652.44
2023-04-10T23:42:16.048Z,101659.00
2023-04-10T23:44:44.447Z,101652.66
2023-04-10T23:47:13.124Z,101647.31
2023-04-10T23:49:41.567Z,101641.38
2023-04-10T23:52:11.145Z,101639.66
2023-04-10T23:54:41.033Z,101632.50
2023-04-10T23:57:09.427Z,101623.25
2023-04-10T23:59:37.841Z,101625.66
